sensor_id;sensor_type;location;lat;lon;timestamp;P1;durP1;ratioP1;P2;durP2;ratioP2
60426;SDS011;46274;47.168;27.604;2022-08-21T00:02:32;10.70;;;7.88;;
60426;SDS011;46274;47.168;27.604;2022-08-21T00:08:34;9.70;;;7.78;;
60426;SDS011;46274;47.168;27.604;2022-08-21T00:14:36;11.93;;;8.25;;
60426;SDS011;46274;47.168;27.604;2022-08-21T00:20:38;9.55;;;7.55;;
60426;SDS011;46274;47.168;27.604;2022-08-21T00:26:41;10.73;;;7.43;;
60426;SDS011;46274;47.168;27.604;2022-08-21T00:32:44;12.52;;;8.05;;
60426;SDS011;46274;47.168;27.604;2022-08-21T00:38:46;15.75;;;8.70;;
60426;SDS011;46274;47.168;27.604;2022-08-21T00:44:48;9.30;;;7.35;;
60426;SDS011;46274;47.168;27.604;2022-08-21T00:50:56;11.55;;;7.30;;
60426;SDS011;46274;47.168;27.604;2022-08-21T00:57:03;12.07;;;8.18;;
60426;SDS011;46274;47.168;27.604;2022-08-21T01:03:12;11.57;;;8.05;;
60426;SDS011;46274;47.168;27.604;2022-08-21T01:09:16;10.40;;;7.22;;
60426;SDS011;46274;47.168;27.604;2022-08-21T01:15:17;10.02;;;7.40;;
60426;SDS011;46274;47.168;27.604;2022-08-21T01:21:22;10.45;;;7.65;;
60426;SDS011;46274;47.168;27.604;2022-08-21T01:27:28;11.18;;;7.88;;
60426;SDS011;46274;47.168;27.604;2022-08-21T01:33:30;9.27;;;7.20;;
60426;SDS011;46274;47.168;27.604;2022-08-21T01:39:32;9.40;;;7.03;;
60426;SDS011;46274;47.168;27.604;2022-08-21T01:45:35;9.75;;;6.85;;
60426;SDS011;46274;47.168;27.604;2022-08-21T01:51:37;10.70;;;7.43;;
60426;SDS011;46274;47.168;27.604;2022-08-21T01:57:38;12.27;;;7.13;;
60426;SDS011;46274;47.168;27.604;2022-08-21T02:03:40;11.63;;;7.53;;
60426;SDS011;46274;47.168;27.604;2022-08-21T02:09:42;9.23;;;7.07;;
60426;SDS011;46274;47.168;27.604;2022-08-21T02:15:44;8.60;;;6.95;;
60426;SDS011;46274;47.168;27.604;2022-08-21T02:21:46;8.95;;;7.20;;
60426;SDS011;46274;47.168;27.604;2022-08-21T02:27:48;8.73;;;6.47;;
60426;SDS011;46274;47.168;27.604;2022-08-21T02:33:50;8.90;;;6.78;;
60426;SDS011;46274;47.168;27.604;2022-08-21T02:39:52;10.48;;;6.85;;
60426;SDS011;46274;47.168;27.604;2022-08-21T02:45:55;7.88;;;6.55;;
60426;SDS011;46274;47.168;27.604;2022-08-21T02:51:57;8.00;;;5.78;;
60426;SDS011;46274;47.168;27.604;2022-08-21T02:57:59;9.40;;;7.10;;
60426;SDS011;46274;47.168;27.604;2022-08-21T03:04:01;8.48;;;6.80;;
60426;SDS011;46274;47.168;27.604;2022-08-21T03:10:03;9.23;;;7.18;;
60426;SDS011;46274;47.168;27.604;2022-08-21T03:16:07;8.45;;;6.15;;
60426;SDS011;46274;47.168;27.604;2022-08-21T03:22:10;9.23;;;6.55;;
60426;SDS011;46274;47.168;27.604;2022-08-21T03:28:13;8.57;;;6.07;;
60426;SDS011;46274;47.168;27.604;2022-08-21T03:34:17;8.43;;;6.45;;
60426;SDS011;46274;47.168;27.604;2022-08-21T03:40:19;8.65;;;5.93;;
60426;SDS011;46274;47.168;27.604;2022-08-21T03:46:21;7.97;;;6.25;;
60426;SDS011;46274;47.168;27.604;2022-08-21T03:52:23;9.50;;;6.40;;
60426;SDS011;46274;47.168;27.604;2022-08-21T03:58:27;8.48;;;5.80;;
60426;SDS011;46274;47.168;27.604;2022-08-21T04:04:29;9.20;;;6.90;;
60426;SDS011;46274;47.168;27.604;2022-08-21T04:10:32;9.73;;;6.55;;
60426;SDS011;46274;47.168;27.604;2022-08-21T04:16:36;11.90;;;6.72;;
60426;SDS011;46274;47.168;27.604;2022-08-21T04:22:38;9.00;;;6.10;;
60426;SDS011;46274;47.168;27.604;2022-08-21T04:28:40;8.60;;;6.07;;
60426;SDS011;46274;47.168;27.604;2022-08-21T04:34:44;10.85;;;6.55;;
60426;SDS011;46274;47.168;27.604;2022-08-21T04:40:46;12.25;;;6.78;;
60426;SDS011;46274;47.168;27.604;2022-08-21T04:46:49;17.75;;;6.40;;
60426;SDS011;46274;47.168;27.604;2022-08-21T04:52:51;12.93;;;6.35;;
60426;SDS011;46274;47.168;27.604;2022-08-21T04:58:54;22.15;;;6.53;;
60426;SDS011;46274;47.168;27.604;2022-08-21T05:04:59;25.10;;;8.57;;
60426;SDS011;46274;47.168;27.604;2022-08-21T05:11:01;28.02;;;8.07;;
60426;SDS011;46274;47.168;27.604;2022-08-21T05:17:03;19.33;;;9.07;;
60426;SDS011;46274;47.168;27.604;2022-08-21T05:23:07;18.45;;;9.20;;
60426;SDS011;46274;47.168;27.604;2022-08-21T05:29:10;23.27;;;9.05;;
60426;SDS011;46274;47.168;27.604;2022-08-21T05:35:13;27.42;;;9.27;;
60426;SDS011;46274;47.168;27.604;2022-08-21T05:41:15;17.25;;;8.63;;
60426;SDS011;46274;47.168;27.604;2022-08-21T05:47:16;21.08;;;8.57;;
60426;SDS011;46274;47.168;27.604;2022-08-21T05:53:19;13.82;;;8.85;;
60426;SDS011;46274;47.168;27.604;2022-08-21T05:59:22;12.20;;;8.43;;
60426;SDS011;46274;47.168;27.604;2022-08-21T06:05:24;12.20;;;8.02;;
60426;SDS011;46274;47.168;27.604;2022-08-21T06:11:37;18.83;;;9.40;;
60426;SDS011;46274;47.168;27.604;2022-08-21T06:17:39;20.75;;;8.63;;
60426;SDS011;46274;47.168;27.604;2022-08-21T06:23:41;16.15;;;8.52;;
60426;SDS011;46274;47.168;27.604;2022-08-21T06:29:43;17.98;;;8.35;;
60426;SDS011;46274;47.168;27.604;2022-08-21T06:35:46;21.50;;;8.02;;
60426;SDS011;46274;47.168;27.604;2022-08-21T06:41:48;13.68;;;7.78;;
60426;SDS011;46274;47.168;27.604;2022-08-21T06:47:49;20.48;;;8.18;;
60426;SDS011;46274;47.168;27.604;2022-08-21T06:53:51;18.35;;;8.40;;
60426;SDS011;46274;47.168;27.604;2022-08-21T06:59:54;18.02;;;8.05;;
60426;SDS011;46274;47.168;27.604;2022-08-21T07:05:56;23.70;;;7.65;;
60426;SDS011;46274;47.168;27.604;2022-08-21T07:12:01;15.52;;;7.50;;
60426;SDS011;46274;47.168;27.604;2022-08-21T07:18:04;14.52;;;7.32;;
60426;SDS011;46274;47.168;27.604;2022-08-21T07:24:06;18.65;;;7.57;;
60426;SDS011;46274;47.168;27.604;2022-08-21T07:30:08;14.95;;;7.93;;
60426;SDS011;46274;47.168;27.604;2022-08-21T07:36:10;14.90;;;7.53;;
60426;SDS011;46274;47.168;27.604;2022-08-21T07:42:12;16.23;;;7.68;;
60426;SDS011;46274;47.168;27.604;2022-08-21T07:48:14;22.80;;;8.00;;
60426;SDS011;46274;47.168;27.604;2022-08-21T07:54:16;18.15;;;7.38;;
60426;SDS011;46274;47.168;27.604;2022-08-21T08:00:30;36.42;;;8.43;;
60426;SDS011;46274;47.168;27.604;2022-08-21T08:06:32;29.85;;;8.02;;
60426;SDS011;46274;47.168;27.604;2022-08-21T08:12:35;22.98;;;8.30;;
60426;SDS011;46274;47.168;27.604;2022-08-21T08:18:40;23.40;;;8.57;;
60426;SDS011;46274;47.168;27.604;2022-08-21T08:24:43;63.97;;;11.15;;
60426;SDS011;46274;47.168;27.604;2022-08-21T08:30:45;36.42;;;9.10;;
60426;SDS011;46274;47.168;27.604;2022-08-21T08:36:47;27.38;;;8.27;;
60426;SDS011;46274;47.168;27.604;2022-08-21T08:42:51;35.20;;;9.57;;
60426;SDS011;46274;47.168;27.604;2022-08-21T08:48:56;37.40;;;11.35;;
60426;SDS011;46274;47.168;27.604;2022-08-21T09:01:15;28.40;;;10.65;;
60426;SDS011;46274;47.168;27.604;2022-08-21T09:14:28;34.90;;;9.88;;
60426;SDS011;46274;47.168;27.604;2022-08-21T09:33:14;25.45;;;9.27;;
60426;SDS011;46274;47.168;27.604;2022-08-21T09:39:32;31.88;;;9.88;;
60426;SDS011;46274;47.168;27.604;2022-08-21T09:45:46;36.65;;;10.40;;
60426;SDS011;46274;47.168;27.604;2022-08-21T09:51:50;34.80;;;10.82;;
60426;SDS011;46274;47.168;27.604;2022-08-21T09:57:54;33.58;;;10.38;;
60426;SDS011;46274;47.168;27.604;2022-08-21T10:04:07;28.75;;;11.13;;
60426;SDS011;46274;47.168;27.604;2022-08-21T10:10:20;30.70;;;12.40;;
60426;SDS011;46274;47.168;27.604;2022-08-21T10:35:40;53.38;;;17.00;;
60426;SDS011;46274;47.168;27.604;2022-08-21T10:48:29;45.67;;;17.92;;
60426;SDS011;46274;47.168;27.604;2022-08-21T11:00:58;51.08;;;17.55;;
60426;SDS011;46274;47.168;27.604;2022-08-21T11:07:20;56.03;;;19.65;;
60426;SDS011;46274;47.168;27.604;2022-08-21T11:13:43;54.25;;;19.48;;
60426;SDS011;46274;47.168;27.604;2022-08-21T11:19:48;55.78;;;19.40;;
60426;SDS011;46274;47.168;27.604;2022-08-21T11:26:02;52.25;;;15.25;;
60426;SDS011;46274;47.168;27.604;2022-08-21T11:38:27;23.50;;;10.25;;
60426;SDS011;46274;47.168;27.604;2022-08-21T11:44:46;23.95;;;8.57;;
60426;SDS011;46274;47.168;27.604;2022-08-21T11:50:55;10.43;;;5.57;;
60426;SDS011;46274;47.168;27.604;2022-08-21T11:57:07;18.77;;;5.32;;
60426;SDS011;46274;47.168;27.604;2022-08-21T12:03:51;13.45;;;6.20;;
60426;SDS011;46274;47.168;27.604;2022-08-21T12:09:57;13.80;;;5.65;;
60426;SDS011;46274;47.168;27.604;2022-08-21T12:22:12;23.00;;;6.78;;
60426;SDS011;46274;47.168;27.604;2022-08-21T12:28:20;29.00;;;7.50;;
60426;SDS011;46274;47.168;27.604;2022-08-21T12:34:35;26.98;;;7.55;;
60426;SDS011;46274;47.168;27.604;2022-08-21T12:40:59;27.92;;;8.15;;
60426;SDS011;46274;47.168;27.604;2022-08-21T12:47:15;25.05;;;7.32;;
60426;SDS011;46274;47.168;27.604;2022-08-21T12:59:28;22.58;;;7.40;;
60426;SDS011;46274;47.168;27.604;2022-08-21T13:05:34;20.10;;;7.10;;
60426;SDS011;46274;47.168;27.604;2022-08-21T13:11:39;28.08;;;7.18;;
60426;SDS011;46274;47.168;27.604;2022-08-21T13:17:44;23.77;;;7.57;;
60426;SDS011;46274;47.168;27.604;2022-08-21T13:23:49;20.33;;;7.47;;
60426;SDS011;46274;47.168;27.604;2022-08-21T13:30:05;16.67;;;6.88;;
60426;SDS011;46274;47.168;27.604;2022-08-21T13:36:11;23.13;;;7.45;;
60426;SDS011;46274;47.168;27.604;2022-08-21T13:42:27;12.02;;;6.53;;
60426;SDS011;46274;47.168;27.604;2022-08-21T13:48:30;24.42;;;8.32;;
60426;SDS011;46274;47.168;27.604;2022-08-21T13:54:36;32.47;;;7.97;;
60426;SDS011;46274;47.168;27.604;2022-08-21T14:00:47;18.48;;;5.40;;
60426;SDS011;46274;47.168;27.604;2022-08-21T14:06:51;11.27;;;5.40;;
60426;SDS011;46274;47.168;27.604;2022-08-21T14:12:55;10.98;;;5.28;;
60426;SDS011;46274;47.168;27.604;2022-08-21T14:25:06;26.42;;;5.13;;
60426;SDS011;46274;47.168;27.604;2022-08-21T14:31:12;16.15;;;5.97;;
60426;SDS011;46274;47.168;27.604;2022-08-21T14:37:19;15.80;;;6.10;;
60426;SDS011;46274;47.168;27.604;2022-08-21T14:43:21;22.83;;;8.02;;
60426;SDS011;46274;47.168;27.604;2022-08-21T14:49:24;15.70;;;8.23;;
60426;SDS011;46274;47.168;27.604;2022-08-21T14:55:27;12.10;;;7.45;;
60426;SDS011;46274;47.168;27.604;2022-08-21T15:01:29;19.42;;;8.20;;
60426;SDS011;46274;47.168;27.604;2022-08-21T15:07:34;18.63;;;8.07;;
60426;SDS011;46274;47.168;27.604;2022-08-21T15:13:36;24.42;;;8.50;;
60426;SDS011;46274;47.168;27.604;2022-08-21T15:19:38;29.83;;;9.18;;
60426;SDS011;46274;47.168;27.604;2022-08-21T15:25:41;21.42;;;7.72;;
60426;SDS011;46274;47.168;27.604;2022-08-21T15:31:55;16.98;;;7.55;;
60426;SDS011;46274;47.168;27.604;2022-08-21T15:37:59;15.15;;;7.35;;
60426;SDS011;46274;47.168;27.604;2022-08-21T15:44:01;13.38;;;7.75;;
60426;SDS011;46274;47.168;27.604;2022-08-21T15:50:04;17.85;;;8.75;;
60426;SDS011;46274;47.168;27.604;2022-08-21T15:56:19;17.98;;;7.28;;
60426;SDS011;46274;47.168;27.604;2022-08-21T16:02:27;18.35;;;8.02;;
60426;SDS011;46274;47.168;27.604;2022-08-21T16:08:31;18.77;;;8.00;;
60426;SDS011;46274;47.168;27.604;2022-08-21T16:14:33;25.27;;;7.93;;
60426;SDS011;46274;47.168;27.604;2022-08-21T16:20:37;21.10;;;8.27;;
60426;SDS011;46274;47.168;27.604;2022-08-21T16:26:39;14.60;;;7.57;;
60426;SDS011;46274;47.168;27.604;2022-08-21T16:32:43;16.42;;;7.88;;
60426;SDS011;46274;47.168;27.604;2022-08-21T16:38:45;12.43;;;7.93;;
60426;SDS011;46274;47.168;27.604;2022-08-21T16:44:48;18.23;;;7.50;;
60426;SDS011;46274;47.168;27.604;2022-08-21T16:50:51;21.20;;;8.23;;
60426;SDS011;46274;47.168;27.604;2022-08-21T16:56:52;16.98;;;7.50;;
60426;SDS011;46274;47.168;27.604;2022-08-21T17:02:54;20.23;;;8.35;;
60426;SDS011;46274;47.168;27.604;2022-08-21T17:08:57;18.10;;;7.70;;
60426;SDS011;46274;47.168;27.604;2022-08-21T17:15:04;14.52;;;7.28;;
60426;SDS011;46274;47.168;27.604;2022-08-21T17:21:21;20.52;;;7.93;;
60426;SDS011;46274;47.168;27.604;2022-08-21T17:27:23;27.95;;;7.75;;
60426;SDS011;46274;47.168;27.604;2022-08-21T17:33:29;42.40;;;8.85;;
60426;SDS011;46274;47.168;27.604;2022-08-21T17:39:35;57.25;;;10.25;;
60426;SDS011;46274;47.168;27.604;2022-08-21T17:45:37;34.38;;;9.48;;
60426;SDS011;46274;47.168;27.604;2022-08-21T17:51:39;23.35;;;8.23;;
60426;SDS011;46274;47.168;27.604;2022-08-21T17:57:41;39.08;;;9.93;;
60426;SDS011;46274;47.168;27.604;2022-08-21T18:03:45;50.35;;;10.25;;
60426;SDS011;46274;47.168;27.604;2022-08-21T18:09:47;27.10;;;8.07;;
60426;SDS011;46274;47.168;27.604;2022-08-21T18:15:50;24.67;;;8.80;;
60426;SDS011;46274;47.168;27.604;2022-08-21T18:21:53;23.15;;;8.30;;
60426;SDS011;46274;47.168;27.604;2022-08-21T18:27:55;19.00;;;8.50;;
60426;SDS011;46274;47.168;27.604;2022-08-21T18:33:57;21.45;;;8.35;;
60426;SDS011;46274;47.168;27.604;2022-08-21T18:40:03;24.23;;;8.63;;
60426;SDS011;46274;47.168;27.604;2022-08-21T18:46:08;18.95;;;8.32;;
60426;SDS011;46274;47.168;27.604;2022-08-21T18:52:11;24.30;;;8.20;;
60426;SDS011;46274;47.168;27.604;2022-08-21T18:58:20;19.23;;;7.72;;
60426;SDS011;46274;47.168;27.604;2022-08-21T19:04:22;20.83;;;8.93;;
60426;SDS011;46274;47.168;27.604;2022-08-21T19:10:44;19.63;;;8.18;;
60426;SDS011;46274;47.168;27.604;2022-08-21T19:16:47;16.23;;;8.13;;
60426;SDS011;46274;47.168;27.604;2022-08-21T19:22:50;20.30;;;8.15;;
60426;SDS011;46274;47.168;27.604;2022-08-21T19:28:54;15.50;;;7.88;;
60426;SDS011;46274;47.168;27.604;2022-08-21T19:35:00;24.50;;;7.70;;
60426;SDS011;46274;47.168;27.604;2022-08-21T19:41:02;14.88;;;7.75;;
60426;SDS011;46274;47.168;27.604;2022-08-21T19:47:12;13.82;;;6.90;;
60426;SDS011;46274;47.168;27.604;2022-08-21T19:53:19;12.57;;;6.75;;
60426;SDS011;46274;47.168;27.604;2022-08-21T19:59:21;17.30;;;7.47;;
60426;SDS011;46274;47.168;27.604;2022-08-21T20:05:25;10.90;;;7.35;;
60426;SDS011;46274;47.168;27.604;2022-08-21T20:11:42;15.13;;;7.80;;
60426;SDS011;46274;47.168;27.604;2022-08-21T20:17:47;12.77;;;6.95;;
60426;SDS011;46274;47.168;27.604;2022-08-21T20:23:49;10.85;;;7.38;;
60426;SDS011;46274;47.168;27.604;2022-08-21T20:29:51;12.98;;;7.05;;
60426;SDS011;46274;47.168;27.604;2022-08-21T20:35:53;19.92;;;6.75;;
60426;SDS011;46274;47.168;27.604;2022-08-21T20:41:55;17.65;;;8.02;;
60426;SDS011;46274;47.168;27.604;2022-08-21T20:48:08;12.80;;;7.40;;
60426;SDS011;46274;47.168;27.604;2022-08-21T21:00:40;14.82;;;6.85;;
60426;SDS011;46274;47.168;27.604;2022-08-21T21:06:49;12.18;;;7.03;;
60426;SDS011;46274;47.168;27.604;2022-08-21T21:13:04;17.58;;;6.90;;
60426;SDS011;46274;47.168;27.604;2022-08-21T21:25:39;12.77;;;7.60;;
60426;SDS011;46274;47.168;27.604;2022-08-21T21:31:54;12.73;;;7.30;;
60426;SDS011;46274;47.168;27.604;2022-08-21T21:50:18;10.50;;;6.80;;
60426;SDS011;46274;47.168;27.604;2022-08-21T22:03:28;8.52;;;6.40;;
60426;SDS011;46274;47.168;27.604;2022-08-21T22:09:45;15.25;;;7.32;;
60426;SDS011;46274;47.168;27.604;2022-08-21T22:15:55;9.50;;;6.30;;
60426;SDS011;46274;47.168;27.604;2022-08-21T22:22:18;10.23;;;6.63;;
60426;SDS011;46274;47.168;27.604;2022-08-21T22:28:24;10.23;;;6.32;;
60426;SDS011;46274;47.168;27.604;2022-08-21T22:34:28;11.43;;;6.75;;
60426;SDS011;46274;47.168;27.604;2022-08-21T22:40:33;9.93;;;6.45;;
60426;SDS011;46274;47.168;27.604;2022-08-21T22:46:41;11.52;;;6.65;;
60426;SDS011;46274;47.168;27.604;2022-08-21T22:53:00;10.05;;;5.60;;
60426;SDS011;46274;47.168;27.604;2022-08-21T22:59:07;12.63;;;5.75;;
60426;SDS011;46274;47.168;27.604;2022-08-21T23:05:35;10.40;;;6.32;;
60426;SDS011;46274;47.168;27.604;2022-08-21T23:11:38;10.25;;;6.35;;
60426;SDS011;46274;47.168;27.604;2022-08-21T23:17:47;8.95;;;6.43;;
60426;SDS011;46274;47.168;27.604;2022-08-21T23:23:59;8.98;;;6.30;;
60426;SDS011;46274;47.168;27.604;2022-08-21T23:30:32;8.77;;;5.72;;
60426;SDS011;46274;47.168;27.604;2022-08-21T23:43:52;10.38;;;6.03;;
